Terminal Aerodrome Forecast
Issued by NWS

Home | Current Version | Previous Version | Text Only | Print | Product List | Glossary On
Versions: 1 2 3 4 5 6 7 8 9 10 11 12 13 14 15 16 17 18 19 20 21 22 23 24 25 26 27 28 29 30 31 32
000
FTUS41 KCTP 290331 AAD
TAFBFD
TAF AMD
KBFD 290331Z 2904/2924 12004KT 2SM BR SKC
      TEMPO 2909/2912 1/2SM FG SKC
     FM291200 00000KT 2SM BR BKN025 OVC040
     FM291400 23005KT P6SM -SHRA BKN040
     FM291600 23005KT P6SM VCTS BKN040CB
     FM292300 27003KT 4SM BR OVC050=

USA.gov is the U.S. government's official web portal to all federal, state and local government web resources and services.